Rhu, United Kingdom
Current Conditions -  °F | °C
As of 7:50 PM on Thursday 27 Nov 2014 (Local Time) from EGPF Reporting Station
Haze Haze  
Wind Chill: 44°   Ceiling: 3400
Heat Index: 46°   Visibility: 3mi
Dew Point: 46°   Wind: 5mph
Humidity: 100%   Direction: 90°E
Pressure: 29.59"   Gusts: NA
Location:  56.02°N, 4.77°W
Report Text: EGPF 271950Z AUTO 09004KT 5000 BR FEW018 OVC034 08/08 Q1002
Loading
Personal Weather Stations






























Interactive Weather Map New forecast layout! Learn more

10-Day Weather Forecast

Advertisements
Track Severe Weather on mobile